Time;durP1;ratioP1;P1;durP2;ratioP2;P2;SDS_P1;SDS_P2;PMS_P1;PMS_P2;Temp;Humidity;BMP_temperature;BMP_pressure;BME280_temperature;BME280_humidity;BME280_pressure;Samples;Min_cycle;Max_cycle;Signal;HPM_P1;HPM_P2
2023/07/19 00:01:22;;;;;;;1999.90;999.90;;;18.90;99.90;;;;;;5095072;28;20033;-74
2023/07/19 00:03:47;;;;;;;1999.90;999.90;;;18.80;99.90;;;;;;5092627;28;20147;-74
2023/07/19 00:06:13;;;;;;;1999.90;999.90;;;18.90;99.90;;;;;;5095550;28;20097;-74
2023/07/19 00:08:38;;;;;;;1999.90;999.90;;;18.90;99.90;;;;;;5095496;28;20043;-75
2023/07/19 00:11:04;;;;;;;1999.90;999.90;;;18.90;99.90;;;;;;5095116;28;20044;-75
2023/07/19 00:13:29;;;;;;;1999.90;999.90;;;18.90;99.90;;;;;;5095585;28;20028;-74
2023/07/19 00:15:55;;;;;;;1999.90;999.90;;;18.90;99.90;;;;;;5095036;28;20478;-74
2023/07/19 00:18:20;;;;;;;1999.90;999.90;;;19.00;99.90;;;;;;5095207;28;20557;-75
2023/07/19 00:20:46;;;;;;;1999.90;999.90;;;19.00;99.90;;;;;;5094788;28;20033;-75
2023/07/19 00:23:12;;;;;;;1999.90;999.90;;;19.10;99.90;;;;;;5094858;28;20032;-75
2023/07/19 00:25:37;;;;;;;1999.90;999.90;;;19.10;99.90;;;;;;5094975;28;20041;-75
2023/07/19 00:28:03;;;;;;;1999.90;999.90;;;19.10;99.90;;;;;;5095137;28;20488;-75
2023/07/19 00:30:28;;;;;;;1999.90;999.90;;;19.10;99.90;;;;;;5095196;28;20426;-74
2023/07/19 00:32:54;;;;;;;1999.90;999.90;;;19.00;99.90;;;;;;5094657;28;20074;-74
2023/07/19 00:35:19;;;;;;;1999.90;999.90;;;19.10;99.90;;;;;;5094735;28;20086;-74
2023/07/19 00:37:45;;;;;;;1999.90;999.90;;;18.90;99.90;;;;;;5094915;28;20056;-74
2023/07/19 00:40:11;;;;;;;1999.90;999.90;;;18.80;99.90;;;;;;5095074;28;20501;-74
2023/07/19 00:42:36;;;;;;;1999.90;999.90;;;18.70;99.90;;;;;;5094546;28;20529;-75
2023/07/19 00:45:02;;;;;;;1999.90;999.90;;;18.70;99.90;;;;;;5094877;28;20039;-74
2023/07/19 00:47:28;;;;;;;1999.90;999.90;;;18.60;99.90;;;;;;5094633;28;20547;-74
2023/07/19 00:49:54;;;;;;;1999.90;999.90;;;18.50;99.90;;;;;;5094867;28;20032;-75
2023/07/19 00:52:20;;;;;;;1999.90;999.90;;;18.40;99.90;;;;;;5094610;28;20521;-75
2023/07/19 00:54:46;;;;;;;1999.90;999.90;;;18.40;99.90;;;;;;5094807;28;20119;-74
2023/07/19 00:57:12;;;;;;;1999.90;999.90;;;18.40;99.90;;;;;;5094626;28;20367;-74
2023/07/19 00:59:39;;;;;;;1999.90;999.90;;;18.40;99.90;;;;;;5094154;28;20043;-74
2023/07/19 01:02:05;;;;;;;1999.90;999.90;;;18.40;99.90;;;;;;5094300;28;20423;-74
2023/07/19 01:04:30;;;;;;;1999.90;999.90;;;18.40;99.90;;;;;;5093080;28;20041;-74
2023/07/19 01:06:56;;;;;;;1999.90;999.90;;;18.40;99.90;;;;;;5094409;28;20051;-74
2023/07/19 01:09:24;;;;;;;1999.90;999.90;;;18.40;99.90;;;;;;5094333;28;20418;-74
2023/07/19 01:11:49;;;;;;;1999.90;999.90;;;18.40;99.90;;;;;;5093895;28;20064;-74
2023/07/19 01:14:15;;;;;;;1999.90;999.90;;;18.40;99.90;;;;;;5095486;28;20502;-74
2023/07/19 01:16:41;;;;;;;1999.90;999.90;;;18.20;99.90;;;;;;5098057;28;20055;-74
2023/07/19 01:19:08;;;;;;;1999.90;999.90;;;18.40;99.90;;;;;;5097817;28;20032;-74
2023/07/19 01:21:34;;;;;;;1999.90;999.90;;;18.30;99.90;;;;;;5097870;28;20033;-75
2023/07/19 01:24:00;;;;;;;1999.90;999.90;;;18.20;99.90;;;;;;5097940;28;20382;-74
2023/07/19 01:26:25;;;;;;;1999.90;999.90;;;18.20;99.90;;;;;;5097760;28;20036;-74
2023/07/19 01:28:51;;;;;;;1999.90;999.90;;;18.10;99.90;;;;;;5097784;28;20106;-74
2023/07/19 01:31:16;;;;;;;1999.90;999.90;;;18.00;99.90;;;;;;5095250;28;20593;-74
2023/07/19 01:33:42;;;;;;;1999.90;999.90;;;17.90;99.90;;;;;;5097957;28;20068;-74
2023/07/19 01:36:07;;;;;;;1999.90;999.90;;;17.90;99.90;;;;;;5097719;28;20040;-74
2023/07/19 01:38:34;;;;;;;1999.90;999.90;;;17.80;99.90;;;;;;5097474;28;20079;-75
2023/07/19 01:41:00;;;;;;;1999.90;999.90;;;17.70;99.90;;;;;;5095938;28;20135;-74
2023/07/19 01:43:25;;;;;;;1999.90;999.90;;;17.80;99.90;;;;;;5097477;28;20115;-74
2023/07/19 01:45:51;;;;;;;1999.90;999.90;;;17.70;99.90;;;;;;5097384;28;20494;-74
2023/07/19 01:48:18;;;;;;;1999.90;999.90;;;17.60;99.90;;;;;;5097622;28;20040;-74
2023/07/19 01:50:47;;;;;;;1999.90;999.90;;;17.60;99.90;;;;;;5097416;28;20476;-75
2023/07/19 01:53:13;;;;;;;1999.90;999.90;;;17.50;99.90;;;;;;5097199;28;20159;-75
2023/07/19 01:55:39;;;;;;;1999.90;999.90;;;17.50;99.90;;;;;;5097434;28;20097;-74
2023/07/19 01:58:05;;;;;;;1999.90;999.90;;;17.50;99.90;;;;;;5097110;28;20459;-74
2023/07/19 02:00:31;;;;;;;1999.90;999.90;;;17.50;99.90;;;;;;5096950;28;20037;-75
2023/07/19 02:02:56;;;;;;;1999.90;999.90;;;17.40;99.90;;;;;;5097173;28;20029;-74
2023/07/19 02:05:22;;;;;;;1999.90;999.90;;;17.50;99.90;;;;;;5097503;28;20032;-74
2023/07/19 02:07:48;;;;;;;1999.90;999.90;;;17.40;99.90;;;;;;5097372;28;20028;-74
2023/07/19 02:10:13;;;;;;;1999.90;999.90;;;17.40;99.90;;;;;;5097041;28;20024;-74
2023/07/19 02:12:39;;;;;;;1999.90;999.90;;;17.40;99.90;;;;;;5096730;28;20032;-74
2023/07/19 02:15:05;;;;;;;1999.90;999.90;;;17.40;99.90;;;;;;5097111;28;20036;-74
2023/07/19 02:17:31;;;;;;;1999.90;999.90;;;17.40;99.90;;;;;;5096671;28;20127;-74
2023/07/19 02:19:56;;;;;;;1999.90;999.90;;;17.30;99.90;;;;;;5096723;28;20020;-74
2023/07/19 02:22:23;;;;;;;1999.90;999.90;;;17.30;99.90;;;;;;5095191;28;20028;-74
2023/07/19 02:24:48;;;;;;;1999.90;999.90;;;17.30;99.90;;;;;;5097042;28;20036;-74
2023/07/19 02:27:14;;;;;;;1999.90;999.90;;;17.20;99.90;;;;;;5095792;28;20051;-74
2023/07/19 02:29:39;;;;;;;1999.90;999.90;;;17.30;99.90;;;;;;5096683;28;20027;-74
2023/07/19 02:32:05;;;;;;;1999.90;999.90;;;17.30;99.90;;;;;;5096769;28;20044;-74
2023/07/19 02:34:31;;;;;;;1999.90;999.90;;;17.30;99.90;;;;;;5096836;28;20037;-74
2023/07/19 02:36:57;;;;;;;1999.90;999.90;;;17.30;99.90;;;;;;5096881;28;20112;-74
2023/07/19 02:39:26;;;;;;;1999.90;999.90;;;17.40;99.90;;;;;;5096053;28;20043;-74
2023/07/19 02:41:52;;;;;;;1999.90;999.90;;;17.40;99.90;;;;;;5096427;28;20029;-75
2023/07/19 02:44:18;;;;;;;1999.90;999.90;;;17.40;99.90;;;;;;5096785;28;20028;-74
2023/07/19 02:46:43;;;;;;;1999.90;999.90;;;17.40;99.90;;;;;;5096680;28;20371;-74
2023/07/19 02:49:09;;;;;;;1999.90;999.90;;;17.40;99.90;;;;;;5096286;28;20024;-74
2023/07/19 02:51:35;;;;;;;1999.90;999.90;;;17.20;99.90;;;;;;5096342;28;20464;-74
2023/07/19 02:54:00;;;;;;;1999.90;999.90;;;17.30;99.90;;;;;;5096458;28;20032;-74
2023/07/19 02:56:26;;;;;;;1999.90;999.90;;;17.20;99.90;;;;;;5096330;28;20055;-74
2023/07/19 02:58:52;;;;;;;1999.90;999.90;;;17.20;99.90;;;;;;5096320;28;20114;-74
2023/07/19 03:01:17;;;;;;;1999.90;999.90;;;17.20;99.90;;;;;;5096207;28;20414;-74
2023/07/19 03:03:43;;;;;;;1999.90;999.90;;;17.10;99.90;;;;;;5096439;28;20090;-74
2023/07/19 03:06:12;;;;;;;1999.90;999.90;;;17.10;99.90;;;;;;5096588;28;20478;-74
2023/07/19 03:08:38;;;;;;;1999.90;999.90;;;17.10;99.90;;;;;;5095950;28;20028;-74
2023/07/19 03:11:06;;;;;;;1999.90;999.90;;;17.10;99.90;;;;;;5096022;28;20037;-74
2023/07/19 03:13:31;;;;;;;1999.90;999.90;;;17.10;99.90;;;;;;5096230;28;20064;-74
2023/07/19 03:15:57;;;;;;;1999.90;999.90;;;17.10;99.90;;;;;;5096125;28;20123;-74
2023/07/19 03:18:23;;;;;;;1999.90;999.90;;;17.10;99.90;;;;;;5096358;28;20029;-75
2023/07/19 03:20:58;;;;;;;1999.90;999.90;;;17.10;99.90;;;;;;5094331;28;20075;-74
2023/07/19 03:23:24;;;;;;;1999.90;999.90;;;17.10;99.90;;;;;;5095791;28;20482;-74
2023/07/19 03:25:50;;;;;;;1999.90;999.90;;;17.00;99.90;;;;;;5095929;28;20454;-74
2023/07/19 03:28:15;;;;;;;1999.90;999.90;;;17.00;99.90;;;;;;5095837;28;20035;-74
2023/07/19 03:30:41;;;;;;;1999.90;999.90;;;17.00;99.90;;;;;;5095439;28;20032;-74
2023/07/19 03:33:06;;;;;;;1999.90;999.90;;;16.90;99.90;;;;;;5095792;28;20036;-74
2023/07/19 03:35:32;;;;;;;1999.90;999.90;;;16.80;99.90;;;;;;5095581;28;20045;-74
2023/07/19 03:37:57;;;;;;;1999.90;999.90;;;17.00;99.90;;;;;;5095810;28;20037;-74
2023/07/19 03:40:23;;;;;;;1999.90;999.90;;;17.00;99.90;;;;;;5093481;28;20132;-74
2023/07/19 03:42:48;;;;;;;1999.90;999.90;;;16.90;99.90;;;;;;5093907;28;20040;-74
2023/07/19 03:45:14;;;;;;;1999.90;999.90;;;17.00;99.90;;;;;;5095793;28;20033;-74
2023/07/19 03:47:39;;;;;;;1999.90;999.90;;;17.00;99.90;;;;;;5095731;28;20035;-74
2023/07/19 03:50:06;;;;;;;1999.90;999.90;;;17.00;99.90;;;;;;5094231;28;20078;-74
2023/07/19 03:52:32;;;;;;;1999.90;999.90;;;17.10;99.90;;;;;;5095135;28;20033;-74
2023/07/19 03:54:57;;;;;;;1999.90;999.90;;;17.20;99.90;;;;;;5095741;28;20379;-74
2023/07/19 03:57:24;;;;;;;1999.90;999.90;;;17.20;99.90;;;;;;5095753;28;20046;-74
2023/07/19 03:59:50;;;;;;;1999.90;999.90;;;17.40;99.90;;;;;;5095537;28;20478;-74
2023/07/19 04:02:15;;;;;;;1999.90;999.90;;;17.40;99.90;;;;;;5093545;28;20041;-74
2023/07/19 04:04:41;;;;;;;1999.90;999.90;;;17.40;99.90;;;;;;5095448;28;20099;-74
2023/07/19 04:07:06;;;;;;;1999.90;999.90;;;17.50;99.90;;;;;;5095459;28;20121;-74
2023/07/19 04:09:32;;;;;;;1999.90;999.90;;;17.60;99.90;;;;;;5095104;28;20040;-74
2023/07/19 04:11:57;;;;;;;1999.90;999.90;;;17.60;99.90;;;;;;5095022;28;20047;-74
2023/07/19 04:14:23;;;;;;;1999.90;999.90;;;17.60;99.90;;;;;;5094244;28;20409;-74
2023/07/19 04:16:48;;;;;;;1999.90;999.90;;;17.70;99.90;;;;;;5095198;28;20040;-74
2023/07/19 04:19:14;;;;;;;1999.90;999.90;;;17.70;99.90;;;;;;5095046;28;20094;-74
2023/07/19 04:21:40;;;;;;;1999.90;999.90;;;17.70;99.90;;;;;;5094652;28;20060;-74
2023/07/19 04:24:05;;;;;;;1999.90;999.90;;;17.70;99.90;;;;;;5093689;28;20498;-74
2023/07/19 04:26:31;;;;;;;1999.90;999.90;;;17.70;99.90;;;;;;5095163;28;20091;-74
2023/07/19 04:28:58;;;;;;;1999.90;999.90;;;17.80;99.90;;;;;;5093237;28;20036;-74
2023/07/19 04:31:23;;;;;;;1999.90;999.90;;;17.70;99.90;;;;;;5094757;28;20033;-74
2023/07/19 04:33:50;;;;;;;1999.90;999.90;;;17.70;99.90;;;;;;5094842;28;20398;-74
2023/07/19 04:36:16;;;;;;;1999.90;999.90;;;17.70;99.90;;;;;;5095046;28;20581;-74
2023/07/19 04:38:42;;;;;;;1999.90;999.90;;;17.70;99.90;;;;;;5094179;28;20036;-74
2023/07/19 04:41:08;;;;;;;1999.90;999.90;;;17.80;99.90;;;;;;5094669;28;20032;-74
2023/07/19 04:43:34;;;;;;;1999.90;999.90;;;17.80;99.90;;;;;;5094859;28;20028;-74
2023/07/19 04:46:00;;;;;;;1999.90;999.90;;;17.80;99.90;;;;;;5095088;28;20044;-74
2023/07/19 04:48:25;;;;;;;1999.90;999.90;;;17.90;99.90;;;;;;5094466;28;20155;-74
2023/07/19 04:50:55;;;;;;;1999.90;999.90;;;17.90;99.90;;;;;;5094246;28;20127;-74
2023/07/19 04:53:21;;;;;;;1999.90;999.90;;;17.90;99.90;;;;;;5094706;28;20036;-74
2023/07/19 04:55:50;;;;;;;1999.90;999.90;;;18.00;99.90;;;;;;5093076;28;20036;-74
2023/07/19 04:58:16;;;;;;;1999.90;999.90;;;18.10;99.90;;;;;;5102385;27;20357;-74
2023/07/19 05:00:41;;;;;;;1999.90;999.90;;;18.20;99.90;;;;;;5112355;27;20033;-75
2023/07/19 05:03:07;;;;;;;1999.90;999.90;;;18.20;99.90;;;;;;5109377;27;20032;-74
2023/07/19 05:05:33;;;;;;;1999.90;999.90;;;18.20;99.90;;;;;;5098227;27;20032;-73
2023/07/19 05:07:59;;;;;;;1999.90;999.90;;;18.30;99.90;;;;;;5093940;28;20486;-74
2023/07/19 05:10:25;;;;;;;1999.90;999.90;;;18.30;99.90;;;;;;5112256;27;20038;-73
2023/07/19 05:12:50;;;;;;;1999.90;999.90;;;18.40;99.90;;;;;;5102400;27;21850;-72
2023/07/19 05:15:16;;;;;;;1999.90;999.90;;;18.40;99.90;;;;;;5104129;28;20044;-71
2023/07/19 05:17:41;;;;;;;1999.90;999.90;;;18.50;99.90;;;;;;5101743;28;20616;-75
2023/07/19 05:20:07;;;;;;;1999.90;999.90;;;18.50;99.90;;;;;;5117565;27;20047;-72
2023/07/19 05:22:33;;;;;;;1999.90;999.90;;;18.60;99.90;;;;;;5110111;28;20070;-72
2023/07/19 05:24:59;;;;;;;1999.90;999.90;;;18.70;99.90;;;;;;5112683;27;20052;-71
2023/07/19 05:27:24;;;;;;;1999.90;999.90;;;18.80;99.90;;;;;;5129638;27;20043;-72
2023/07/19 05:29:50;;;;;;;1999.90;999.90;;;18.80;99.90;;;;;;5127896;27;20036;-76
2023/07/19 05:32:16;;;;;;;1999.90;999.90;;;19.00;99.90;;;;;;5111914;28;20043;-72
2023/07/19 05:34:41;;;;;;;1999.90;999.90;;;19.00;99.90;;;;;;5112018;27;20105;-72
2023/07/19 05:37:07;;;;;;;1999.90;999.90;;;19.10;99.90;;;;;;5114413;27;20045;-73
2023/07/19 05:39:36;;;;;;;1999.90;999.90;;;19.20;99.90;;;;;;5113109;27;20063;-73
2023/07/19 05:42:02;;;;;;;1999.90;999.90;;;19.30;99.90;;;;;;5095203;28;20051;-74
2023/07/19 05:44:28;;;;;;;1999.90;999.90;;;19.50;99.90;;;;;;5093796;28;20082;-73
2023/07/19 05:46:54;;;;;;;1999.90;999.90;;;19.60;99.90;;;;;;5093757;28;20083;-73
2023/07/19 05:49:19;;;;;;;1999.90;999.90;;;19.60;99.90;;;;;;5094110;28;20029;-73
2023/07/19 05:51:45;;;;;;;1999.90;999.90;;;19.80;99.90;;;;;;5093554;28;20474;-72
2023/07/19 05:54:10;;;;;;;1999.90;999.90;;;19.80;99.90;;;;;;5094161;28;20433;-73
2023/07/19 05:56:37;;;;;;;1999.90;999.90;;;19.90;99.90;;;;;;5093995;28;20048;-72
2023/07/19 05:59:04;;;;;;;1999.90;999.90;;;20.00;99.90;;;;;;5093697;28;20056;-72
2023/07/19 06:01:30;;;;;;;1999.90;999.90;;;20.10;99.90;;;;;;5094700;28;20457;-72
2023/07/19 06:03:55;;;;;;;1999.90;999.90;;;20.10;99.90;;;;;;5097467;28;20067;-72
2023/07/19 06:06:21;;;;;;;1999.90;999.90;;;20.10;99.90;;;;;;5097066;28;20036;-73
2023/07/19 06:08:46;;;;;;;1999.90;999.90;;;20.20;99.90;;;;;;5097190;28;20485;-73
2023/07/19 06:11:12;;;;;;;1999.90;999.90;;;20.30;99.90;;;;;;5096703;28;20037;-73
2023/07/19 06:13:37;;;;;;;1999.90;999.90;;;20.40;99.90;;;;;;5097084;28;20041;-73
2023/07/19 06:16:03;;;;;;;1999.90;999.90;;;20.50;99.90;;;;;;5097031;28;20561;-72
2023/07/19 06:18:29;;;;;;;1999.90;999.90;;;20.60;99.90;;;;;;5097097;28;20036;-72
2023/07/19 06:20:54;;;;;;;1999.90;999.90;;;20.70;99.90;;;;;;5094924;28;20060;-72
2023/07/19 06:23:20;;;;;;;1999.90;999.90;;;20.80;99.90;;;;;;5097058;28;20035;-72
2023/07/19 06:25:47;;;;;;;1999.90;999.90;;;20.80;99.90;;;;;;5096942;28;20386;-73
2023/07/19 06:28:13;;;;;;;1999.90;999.90;;;21.00;99.90;;;;;;5111872;27;20253;-73
2023/07/19 06:30:39;;;;;;;1999.90;999.90;;;21.10;99.90;;;;;;5116758;28;20040;-72
2023/07/19 06:33:04;;;;;;;1999.90;999.90;;;21.20;99.90;;;;;;5116772;27;20081;-72
2023/07/19 06:35:30;;;;;;;1999.90;999.90;;;21.30;99.90;;;;;;5116541;28;20036;-73
2023/07/19 06:37:55;;;;;;;1999.90;999.90;;;21.40;99.90;;;;;;5114636;27;20044;-73
2023/07/19 06:40:21;;;;;;;1999.90;999.90;;;21.50;99.90;;;;;;5110599;28;20504;-74
2023/07/19 06:42:46;;;;;;;1999.90;999.90;;;21.50;99.90;;;;;;5114039;28;20032;-73
2023/07/19 06:45:12;;;;;;;1999.90;999.90;;;21.60;99.90;;;;;;5117407;27;20036;-74
2023/07/19 06:47:37;;;;;;;1999.90;999.90;;;21.70;99.90;;;;;;5117190;27;20035;-74
2023/07/19 06:50:04;;;;;;;1999.90;999.90;;;21.70;99.90;;;;;;5117039;27;20024;-75
2023/07/19 06:52:29;;;;;;;1999.90;999.90;;;21.70;99.90;;;;;;5115865;27;20032;-74
2023/07/19 06:54:55;;;;;;;1999.90;999.90;;;21.90;99.90;;;;;;5117227;27;20425;-74
2023/07/19 06:57:21;;;;;;;1999.90;999.90;;;22.00;99.90;;;;;;5116926;27;20040;-74
2023/07/19 06:59:49;;;;;;;1999.90;999.90;;;22.00;99.90;;;;;;5116934;27;20500;-74
2023/07/19 07:02:18;;;;;;;1999.90;999.90;;;22.10;99.90;;;;;;5116580;27;20039;-74
2023/07/19 07:04:44;;;;;;;1999.90;999.90;;;22.30;99.90;;;;;;5116651;27;20074;-74
2023/07/19 07:07:10;;;;;;;1999.90;999.90;;;22.40;99.90;;;;;;5116651;27;20040;-74
2023/07/19 07:09:36;;;;;;;1999.90;999.90;;;22.50;99.90;;;;;;5116678;27;20556;-74
2023/07/19 07:12:02;;;;;;;1999.90;999.90;;;22.60;99.90;;;;;;5116123;27;20071;-74
2023/07/19 07:14:28;;;;;;;1999.90;999.90;;;22.80;99.90;;;;;;5116785;27;20063;-74
2023/07/19 07:16:53;;;;;;;1999.90;999.90;;;23.00;99.90;;;;;;5116563;27;20480;-74
2023/07/19 07:19:19;;;;;;;1999.90;999.90;;;23.30;99.90;;;;;;5116089;27;20036;-74
2023/07/19 07:21:44;;;;;;;1999.90;999.90;;;23.40;99.90;;;;;;5116430;27;20130;-74
2023/07/19 07:24:10;;;;;;;1999.90;999.90;;;23.50;99.90;;;;;;5115092;28;20028;-75
2023/07/19 07:26:35;;;;;;;1999.90;999.90;;;23.50;99.90;;;;;;5111324;27;20101;-73
2023/07/19 07:29:01;;;;;;;1999.90;999.90;;;23.60;99.90;;;;;;5116312;27;20028;-74
2023/07/19 07:31:26;;;;;;;1999.90;999.90;;;23.90;99.90;;;;;;5116025;28;20128;-73
2023/07/19 07:33:52;;;;;;;1999.90;999.90;;;24.20;99.90;;;;;;5117347;27;20397;-73
2023/07/19 07:36:18;;;;;;;1999.90;999.90;;;24.50;99.90;;;;;;5112953;27;20039;-73
2023/07/19 07:38:43;;;;;;;1999.90;999.90;;;24.40;99.90;;;;;;5115520;27;20512;-72
2023/07/19 07:41:11;;;;;;;1999.90;999.90;;;24.30;99.90;;;;;;5114972;28;20044;-72
2023/07/19 07:43:37;;;;;;;1999.90;999.90;;;24.30;99.90;;;;;;5116032;27;20098;-73
2023/07/19 07:46:03;;;;;;;1999.90;999.90;;;24.50;99.90;;;;;;5109779;28;20119;-72
2023/07/19 07:48:28;;;;;;;1999.90;999.90;;;24.70;99.10;;;;;;5095890;28;20025;-73
2023/07/19 07:50:54;;;;;;;1999.90;999.90;;;24.70;98.60;;;;;;5095125;28;20390;-74
2023/07/19 07:53:20;;;;;;;1999.90;999.90;;;24.70;98.50;;;;;;5114564;27;20036;-72
2023/07/19 07:55:46;;;;;;;1999.90;999.90;;;24.90;98.60;;;;;;5115990;28;20036;-73
2023/07/19 07:58:12;;;;;;;1999.90;999.90;;;25.10;98.30;;;;;;5109855;27;20031;-74
2023/07/19 08:00:38;;;;;;;1999.90;999.90;;;25.30;97.40;;;;;;5108778;27;20027;-73
2023/07/19 08:03:04;;;;;;;1999.90;999.90;;;25.40;96.70;;;;;;5131908;27;20370;-73
2023/07/19 08:05:31;;;;;;;1999.90;999.90;;;25.60;96.60;;;;;;5095442;28;20039;-73
2023/07/19 08:07:57;;;;;;;1999.90;999.90;;;25.60;96.00;;;;;;5099748;28;20047;-73
2023/07/19 08:10:23;;;;;;;1999.90;999.90;;;25.90;95.50;;;;;;5115821;28;20504;-73
2023/07/19 08:12:48;;;;;;;1999.90;999.90;;;26.10;94.20;;;;;;5115197;27;20067;-73
2023/07/19 08:15:14;;;;;;;1999.90;999.90;;;26.40;94.40;;;;;;5116408;27;20400;-73
2023/07/19 08:17:39;;;;;;;1999.90;999.90;;;26.60;93.10;;;;;;5115745;27;20161;-73
2023/07/19 08:20:08;;;;;;;1999.90;999.90;;;26.80;91.40;;;;;;5115537;27;20564;-73
2023/07/19 08:22:35;;;;;;;1999.90;999.90;;;26.90;91.50;;;;;;5107113;27;20036;-74
2023/07/19 08:25:00;;;;;;;1999.90;999.90;;;27.10;90.40;;;;;;5114495;27;20024;-74
2023/07/19 08:27:26;;;;;;;1999.90;999.90;;;27.20;90.70;;;;;;5115409;28;20032;-74
2023/07/19 08:29:52;;;;;;;1999.90;999.90;;;27.20;88.70;;;;;;5113697;28;20036;-73
2023/07/19 08:32:18;;;;;;;1999.90;999.90;;;27.10;89.40;;;;;;5115465;27;20040;-74
2023/07/19 08:34:44;;;;;;;1999.90;999.90;;;27.20;87.30;;;;;;5108377;27;20025;-73
2023/07/19 08:37:10;;;;;;;1999.90;999.90;;;27.20;84.60;;;;;;5094778;28;20051;-73
2023/07/19 08:39:35;;;;;;;1999.90;999.90;;;27.20;86.10;;;;;;5114246;27;20043;-73
2023/07/19 08:42:02;;;;;;;1999.90;999.90;;;27.20;84.20;;;;;;5113273;27;20044;-73
2023/07/19 08:44:29;;;;;;;1999.90;999.90;;;27.50;83.30;;;;;;5104002;27;20036;-73
2023/07/19 08:46:55;;;;;;;1999.90;999.90;;;27.50;80.60;;;;;;5094297;28;20517;-73
2023/07/19 08:49:21;;;;;;;1999.90;999.90;;;27.70;83.10;;;;;;5108397;28;20028;-73
2023/07/19 08:51:47;;;;;;;1999.90;999.90;;;27.70;81.20;;;;;;5111887;27;20039;-73
2023/07/19 08:54:13;;;;;;;1999.90;999.90;;;27.80;79.40;;;;;;5112770;27;20032;-73
2023/07/19 08:56:43;;;;;;;1999.90;999.90;;;28.10;80.10;;;;;;5112473;27;20040;-73
2023/07/19 08:59:09;;;;;;;1999.90;999.90;;;28.30;79.20;;;;;;5112404;28;20509;-73
2023/07/19 09:01:35;;;;;;;1999.90;999.90;;;28.20;77.50;;;;;;5098893;28;20040;-74
2023/07/19 09:04:06;;;;;;;1999.90;999.90;;;28.00;77.80;;;;;;5100738;28;20043;-73
2023/07/19 09:06:32;;;;;;;1999.90;999.90;;;28.00;78.50;;;;;;5103112;28;20132;-73
2023/07/19 09:08:59;;;;;;;1999.90;999.90;;;28.30;79.40;;;;;;5092174;28;20472;-74
2023/07/19 09:11:24;;;;;;;1999.90;999.90;;;28.30;79.10;;;;;;5092622;28;20862;-73
2023/07/19 09:13:55;;;;;;;1999.90;999.90;;;28.40;76.30;;;;;;5108428;27;20040;-74
2023/07/19 09:16:28;;;;;;;1999.90;999.90;;;28.50;76.20;;;;;;5098610;27;20032;-74
2023/07/19 09:18:56;;;;;;;1999.90;999.90;;;28.70;74.40;;;;;;5092000;28;20040;-74
2023/07/19 09:21:32;;;;;;;1999.90;999.90;;;28.90;74.60;;;;;;5094101;28;20044;-75
2023/07/19 09:23:59;;;;;;;1999.90;999.90;;;28.80;73.60;;;;;;5094608;28;20033;-74
2023/07/19 09:26:24;;;;;;;1999.90;999.90;;;29.00;73.00;;;;;;5104535;28;20028;-74
2023/07/19 09:28:53;;;;;;;1999.90;999.90;;;29.00;73.40;;;;;;5106173;28;20032;-75
2023/07/19 09:31:18;;;;;;;1999.90;999.90;;;28.90;73.10;;;;;;5096158;28;20044;-75
2023/07/19 09:33:44;;;;;;;1999.90;999.90;;;29.30;73.10;;;;;;5114735;27;20032;-75
2023/07/19 09:36:16;;;;;;;1999.90;999.90;;;29.50;69.50;;;;;;5116655;27;20168;-75
2023/07/19 09:38:41;;;;;;;1999.90;999.90;;;29.60;68.10;;;;;;5117780;27;20039;-74
2023/07/19 09:41:07;;;;;;;1999.90;999.90;;;29.20;69.80;;;;;;5107915;28;20050;-74
2023/07/19 09:43:34;;;;;;;1999.90;999.90;;;29.00;69.60;;;;;;5115135;28;20122;-74
2023/07/19 09:46:01;;;;;;;1999.90;999.90;;;29.00;67.70;;;;;;5118104;27;20480;-75
2023/07/19 09:48:28;;;;;;;1999.90;999.90;;;29.30;68.60;;;;;;5117744;27;20105;-74
2023/07/19 09:51:00;;;;;;;1999.90;999.90;;;29.40;67.10;;;;;;5117799;28;20039;-75
2023/07/19 09:53:27;;;;;;;1999.90;999.90;;;29.20;66.60;;;;;;5104151;27;20079;-74
2023/07/19 09:55:54;;;;;;;1999.90;999.90;;;29.20;66.50;;;;;;5099800;28;20059;-75
2023/07/19 09:58:22;;;;;;;1999.90;999.90;;;29.20;66.50;;;;;;5117082;27;20493;-74
2023/07/19 10:00:48;;;;;;;1999.90;999.90;;;29.10;67.60;;;;;;5117161;27;20036;-74
2023/07/19 10:03:19;;;;;;;1999.90;999.90;;;29.30;66.20;;;;;;5116874;28;20068;-75
2023/07/19 10:05:44;;;;;;;1999.90;999.90;;;29.60;64.50;;;;;;5116804;28;20063;-75
2023/07/19 10:08:11;;;;;;;1999.90;999.90;;;29.60;65.10;;;;;;5109033;27;20097;-74
2023/07/19 10:10:41;;;;;;;1999.90;999.90;;;29.60;64.50;;;;;;5104900;28;20064;-76
2023/07/19 10:13:10;;;;;;;1999.90;999.90;;;29.60;63.30;;;;;;5096540;28;20106;-75
2023/07/19 10:15:36;;;;;;;1999.90;999.90;;;29.70;62.20;;;;;;5102196;28;20064;-75
2023/07/19 10:18:02;;;;;;;1999.90;999.90;;;29.90;60.30;;;;;;5110909;28;20032;-75
2023/07/19 10:20:28;;;;;;;1999.90;999.90;;;30.10;61.60;;;;;;5114681;27;20085;-74
2023/07/19 10:22:56;;;;;;;1999.90;999.90;;;30.40;59.40;;;;;;5104799;28;20105;-75
2023/07/19 10:25:34;;;;;;;1999.90;999.90;;;30.30;58.70;;;;;;5105376;28;20041;-75
2023/07/19 10:28:02;;;;;;;1999.90;999.90;;;30.10;58.60;;;;;;5109764;27;20048;-75
2023/07/19 10:31:00;;;;;;;1999.90;999.90;;;30.00;57.80;;;;;;5105882;28;20029;-74
2023/07/19 10:33:28;;;;;;;1999.90;999.90;;;30.10;58.70;;;;;;5078993;27;20071;-74
2023/07/19 10:35:58;;;;;;;1999.90;999.90;;;30.20;58.10;;;;;;5105552;27;20036;-74
2023/07/19 10:38:26;;;;;;;1999.90;999.90;;;30.30;58.50;;;;;;5109057;28;20594;-74
2023/07/19 10:40:57;;;;;;;1999.90;999.90;;;30.50;58.10;;;;;;5106294;28;20046;-74
2023/07/19 10:43:24;;;;;;;1999.90;999.90;;;30.40;58.90;;;;;;5098741;28;20029;-74
2023/07/19 10:45:52;;;;;;;1999.90;999.90;;;30.50;59.00;;;;;;5110353;27;20077;-75
2023/07/19 10:48:18;;;;;;;1999.90;999.90;;;30.70;58.60;;;;;;5107005;27;20028;-75
2023/07/19 10:50:45;;;;;;;1999.90;999.90;;;30.90;58.70;;;;;;5104982;28;20035;-75
2023/07/19 10:53:11;;;;;;;1999.90;999.90;;;30.90;56.30;;;;;;5102365;27;20114;-75
2023/07/19 10:55:36;;;;;;;1999.90;999.90;;;31.10;56.30;;;;;;5108784;27;20499;-75
2023/07/19 10:58:02;;;;;;;1999.90;999.90;;;31.50;55.10;;;;;;5117837;27;20040;-75
2023/07/19 11:00:28;;;;;;;1999.90;999.90;;;31.70;56.40;;;;;;5112293;27;20086;-75
2023/07/19 11:02:54;;;;;;;1999.90;999.90;;;31.60;53.90;;;;;;5101088;28;20043;-75
2023/07/19 11:05:19;;;;;;;1999.90;999.90;;;31.10;54.70;;;;;;5095922;28;20513;-75
2023/07/19 11:07:49;;;;;;;1999.90;999.90;;;31.10;57.00;;;;;;5112006;28;20047;-75
2023/07/19 11:10:15;;;;;;;1999.90;999.90;;;31.00;55.10;;;;;;5108426;28;20032;-75
2023/07/19 11:12:41;;;;;;;1999.90;999.90;;;30.70;54.00;;;;;;5105503;27;20085;-75
2023/07/19 11:15:08;;;;;;;1999.90;999.90;;;31.20;54.00;;;;;;5108101;28;20036;-75
2023/07/19 11:17:35;;;;;;;1999.90;999.90;;;31.30;54.60;;;;;;5107943;27;20040;-75
2023/07/19 11:20:01;;;;;;;1999.90;999.90;;;31.50;54.60;;;;;;5107344;27;20036;-75
2023/07/19 11:22:27;;;;;;;1999.90;999.90;;;31.30;55.60;;;;;;5109102;28;20121;-75
2023/07/19 11:24:55;;;;;;;1999.90;999.90;;;31.30;53.60;;;;;;5104505;28;20032;-75
2023/07/19 11:27:33;;;;;;;1999.90;999.90;;;31.10;54.10;;;;;;5108037;28;20039;-75
2023/07/19 11:29:59;;;;;;;1999.90;999.90;;;31.20;56.70;;;;;;5112076;28;20110;-75
2023/07/19 11:32:25;;;;;;;1999.90;999.90;;;31.90;55.60;;;;;;5105912;28;20060;-75
2023/07/19 11:34:58;;;;;;;1999.90;999.90;;;32.30;53.60;;;;;;5105357;28;20114;-75
2023/07/19 11:37:28;;;;;;;1999.90;999.90;;;32.00;52.90;;;;;;5110931;27;20040;-74
2023/07/19 11:39:58;;;;;;;1999.90;999.90;;;31.70;56.30;;;;;;5097808;28;20059;-76
2023/07/19 11:42:47;;;;;;;1999.90;999.90;;;31.30;54.30;;;;;;5115074;27;20032;-75
2023/07/19 11:45:17;;;;;;;1999.90;999.90;;;31.20;53.50;;;;;;5115177;28;20032;-74
2023/07/19 11:47:44;;;;;;;1999.90;999.90;;;31.70;53.90;;;;;;5115822;27;20028;-75
2023/07/19 11:50:11;;;;;;;1999.90;999.90;;;32.10;53.90;;;;;;5095837;27;20037;-75
2023/07/19 11:52:46;;;;;;;1999.90;999.90;;;32.50;51.40;;;;;;5102136;28;20059;-75
2023/07/19 11:55:16;;;;;;;1999.90;999.90;;;32.90;55.30;;;;;;5103417;27;20098;-75